createdAt,value
2022-08-12T00:02:30.687Z,100591.78
2022-08-12T00:05:19.106Z,100590.50
2022-08-12T00:08:05.502Z,100590.66
2022-08-12T00:10:52.056Z,100584.81
2022-08-12T00:13:38.634Z,100588.59
2022-08-12T00:16:25.347Z,100594.16
2022-08-12T00:19:13.394Z,100590.94
2022-08-12T00:22:00.425Z,100597.84
2022-08-12T00:24:47.080Z,100595.59
2022-08-12T00:27:43.618Z,100602.78
2022-08-12T00:30:31.805Z,100597.41
2022-08-12T00:33:22.037Z,100605.44
2022-08-12T00:36:32.287Z,100605.06
2022-08-12T00:39:18.253Z,100597.28
2022-08-12T00:42:05.690Z,100593.16
2022-08-12T00:44:34.477Z,100601.75
2022-08-12T00:47:04.342Z,100595.31
2022-08-12T00:49:33.950Z,100592.09
2022-08-12T00:52:12.844Z,100588.75
2022-08-12T00:54:44.063Z,100589.34
2022-08-12T00:57:14.832Z,100577.69
2022-08-12T00:59:46.281Z,100586.91
2022-08-12T01:02:23.694Z,100577.69
2022-08-12T01:05:14.641Z,100575.53
2022-08-12T01:08:03.170Z,100574.00
2022-08-12T01:10:50.905Z,100583.69
2022-08-12T01:13:22.276Z,100576.88
2022-08-12T01:15:52.648Z,100573.81
2022-08-12T01:18:22.228Z,100574.47
2022-08-12T01:21:04.420Z,100576.22
2022-08-12T01:23:52.416Z,100565.50
2022-08-12T01:26:26.021Z,100568.72
2022-08-12T01:28:59.060Z,100564.19
2022-08-12T01:31:30.239Z,100557.94
2022-08-12T01:34:35.888Z,100562.66
2022-08-12T01:36:59.014Z,100565.53
2022-08-12T01:39:31.801Z,100570.84
2022-08-12T01:42:05.189Z,100571.34
2022-08-12T01:44:35.396Z,100564.88
2022-08-12T01:47:19.281Z,100568.56
2022-08-12T01:50:05.354Z,100564.16
2022-08-12T01:52:43.556Z,100566.31
2022-08-12T01:55:15.703Z,100561.59
2022-08-12T01:57:57.646Z,100561.66
2022-08-12T02:00:55.501Z,100557.50
2022-08-12T02:04:02.808Z,100545.94
2022-08-12T02:06:55.402Z,100549.91
2022-08-12T02:10:00.197Z,100554.66
2022-08-12T02:12:41.519Z,100547.28
2022-08-12T02:15:22.770Z,100542.16
2022-08-12T02:18:04.997Z,100538.75
2022-08-12T02:20:52.069Z,100536.19
2022-08-12T02:23:27.245Z,100539.81
2022-08-12T02:26:00.556Z,100539.97
2022-08-12T02:28:30.020Z,100535.81
2022-08-12T02:31:05.290Z,100544.78
2022-08-12T02:33:34.483Z,100543.25
2022-08-12T02:36:03.580Z,100539.84
2022-08-12T02:38:32.217Z,100543.78
2022-08-12T02:41:04.650Z,100540.72
2022-08-12T02:43:39.171Z,100551.97
2022-08-12T02:46:14.757Z,100554.09
2022-08-12T02:48:51.408Z,100549.47
2022-08-12T02:51:24.099Z,100542.31
2022-08-12T02:54:04.911Z,100543.91
2022-08-12T02:56:38.008Z,100540.94
2022-08-12T02:59:12.287Z,100539.22
2022-08-12T03:01:48.596Z,100550.41
2022-08-12T03:04:26.953Z,100550.56
2022-08-12T03:07:05.768Z,100552.19
2022-08-12T03:10:02.200Z,100554.91
2022-08-12T03:12:34.177Z,100560.78
2022-08-12T03:15:07.332Z,100556.84
2022-08-12T03:17:44.547Z,100560.69
2022-08-12T03:20:17.070Z,100557.97
2022-08-12T03:22:47.260Z,100561.34
2022-08-12T03:25:18.493Z,100568.66
2022-08-12T03:27:51.890Z,100567.63
2022-08-12T03:30:22.545Z,100569.53
2022-08-12T03:32:53.772Z,100559.44
2022-08-12T03:35:40.254Z,100567.16
2022-08-12T03:38:16.279Z,100569.91
2022-08-12T03:41:24.046Z,100569.13
2022-08-12T03:44:17.114Z,100579.13
2022-08-12T03:47:08.394Z,100577.22
2022-08-12T03:49:56.325Z,100576.06
2022-08-12T03:52:42.604Z,100586.06
2022-08-12T03:55:28.926Z,100581.88
2022-08-12T03:58:16.247Z,100586.22
2022-08-12T04:00:46.272Z,100582.09
2022-08-12T04:03:29.442Z,100583.28
2022-08-12T04:05:59.573Z,100590.63
2022-08-12T04:08:28.481Z,100589.75
2022-08-12T04:11:15.353Z,100593.94
2022-08-12T04:13:43.804Z,100596.75
2022-08-12T04:16:13.716Z,100603.19
2022-08-12T04:18:43.709Z,100606.84
2022-08-12T04:21:13.854Z,100603.19
2022-08-12T04:23:48.211Z,100604.09
2022-08-12T04:26:17.652Z,100602.47
2022-08-12T04:28:47.325Z,100607.59
2022-08-12T04:31:16.196Z,100598.63
2022-08-12T04:33:45.433Z,100592.91
2022-08-12T04:36:15.812Z,100595.31
2022-08-12T04:38:45.282Z,100593.84
2022-08-12T04:41:14.150Z,100584.91
2022-08-12T04:43:55.342Z,100589.06
2022-08-12T04:46:34.518Z,100591.63
2022-08-12T04:49:04.156Z,100594.88
2022-08-12T04:51:35.346Z,100599.13
2022-08-12T04:54:06.007Z,100610.38
2022-08-12T04:56:35.860Z,100612.56
2022-08-12T04:59:05.887Z,100603.34
2022-08-12T05:01:37.295Z,100616.06
2022-08-12T05:04:07.020Z,100614.94
2022-08-12T05:06:37.637Z,100617.22
2022-08-12T05:09:13.241Z,100616.09
2022-08-12T05:11:53.603Z,100622.13
2022-08-12T05:14:22.659Z,100618.28
2022-08-12T05:16:51.383Z,100611.78
2022-08-12T05:19:22.742Z,100613.69
2022-08-12T05:21:52.912Z,100617.47
2022-08-12T05:24:21.644Z,100615.06
2022-08-12T05:26:52.128Z,100605.63
2022-08-12T05:30:08.127Z,100606.47
2022-08-12T05:32:09.653Z,100604.47
2022-08-12T05:34:38.112Z,100606.47
2022-08-12T05:37:08.593Z,100609.94
2022-08-12T05:39:37.646Z,100610.63
2022-08-12T05:42:06.813Z,100610.69
2022-08-12T05:44:36.413Z,100603.94
2022-08-12T05:47:05.674Z,100610.97
2022-08-12T05:49:34.773Z,100612.41
2022-08-12T05:52:04.016Z,100612.69
2022-08-12T05:54:56.666Z,100610.81
2022-08-12T05:57:25.848Z,100605.53
2022-08-12T05:59:55.310Z,100613.25
2022-08-12T06:02:23.791Z,100604.88
2022-08-12T06:04:53.821Z,100604.75
2022-08-12T06:08:00.241Z,100605.25
2022-08-12T06:10:13.738Z,100612.66
2022-08-12T06:12:42.553Z,100615.88
2022-08-12T06:15:12.033Z,100617.09
2022-08-12T06:17:40.598Z,100618.19
2022-08-12T06:20:27.469Z,100618.25
2022-08-12T06:22:58.804Z,100609.66
2022-08-12T06:25:29.464Z,100610.56
2022-08-12T06:28:07.472Z,100617.25
2022-08-12T06:30:39.638Z,100610.50
2022-08-12T06:33:21.518Z,100609.69
2022-08-12T06:35:57.401Z,100606.03
2022-08-12T06:38:28.569Z,100607.28
2022-08-12T06:41:19.250Z,100604.16
2022-08-12T06:44:05.013Z,100608.56
2022-08-12T06:46:38.968Z,100613.81
2022-08-12T06:49:12.519Z,100603.84
2022-08-12T06:51:41.421Z,100605.81
2022-08-12T06:54:30.656Z,100603.03
2022-08-12T06:58:05.131Z,100591.44
2022-08-12T06:59:51.321Z,100597.84
2022-08-12T07:02:21.247Z,100595.38
2022-08-12T07:04:50.498Z,100600.84
2022-08-12T07:07:19.055Z,100604.56
2022-08-12T07:09:58.120Z,100608.16
2022-08-12T07:12:37.274Z,100609.81
2022-08-12T07:15:07.885Z,100608.47
2022-08-12T07:17:39.805Z,100611.59
2022-08-12T07:20:29.930Z,100610.25
2022-08-12T07:22:59.083Z,100615.97
2022-08-12T07:25:40.629Z,100611.50
2022-08-12T07:28:16.085Z,100604.81
2022-08-12T07:30:46.409Z,100609.63
2022-08-12T07:33:17.005Z,100619.66
2022-08-12T07:35:48.429Z,100630.16
2022-08-12T07:38:30.665Z,100621.84
2022-08-12T07:41:04.474Z,100620.41
2022-08-12T07:43:36.706Z,100622.38
2022-08-12T07:46:10.463Z,100615.78
2022-08-12T07:48:41.430Z,100615.00
2022-08-12T07:51:11.565Z,100610.44
2022-08-12T07:54:00.216Z,100604.66
2022-08-12T07:56:31.449Z,100608.91
2022-08-12T07:59:03.334Z,100607.53
2022-08-12T08:01:34.153Z,100610.38
2022-08-12T08:04:20.669Z,100616.28
2022-08-12T08:06:50.235Z,100609.84
2022-08-12T08:09:21.726Z,100609.13
2022-08-12T08:12:07.694Z,100635.41
2022-08-12T08:14:38.062Z,100626.75
2022-08-12T08:17:06.977Z,100619.84
2022-08-12T08:20:02.209Z,100618.56
2022-08-12T08:22:24.999Z,100618.28
2022-08-12T08:25:34.252Z,100616.28
2022-08-12T08:28:01.514Z,100615.72
2022-08-12T08:30:32.928Z,100614.84
2022-08-12T08:33:01.762Z,100617.50
2022-08-12T08:35:46.861Z,100628.38
2022-08-12T08:38:31.679Z,100615.41
2022-08-12T08:42:18.109Z,100611.16
2022-08-12T08:44:11.336Z,100614.56
2022-08-12T08:46:43.395Z,100612.06
2022-08-12T08:49:13.636Z,100608.22
2022-08-12T08:51:45.444Z,100607.22
2022-08-12T08:54:14.869Z,100614.56
2022-08-12T08:56:46.633Z,100605.13
2022-08-12T08:59:15.709Z,100605.03
2022-08-12T09:01:46.958Z,100605.44
2022-08-12T09:07:14.963Z,100607.34
2022-08-12T09:12:55.095Z,100615.41
2022-08-12T09:15:35.258Z,100622.44
2022-08-12T09:18:09.493Z,100623.50
2022-08-12T09:20:40.359Z,100616.88
2022-08-12T09:24:00.666Z,100605.72
2022-08-12T09:26:03.858Z,100605.19
2022-08-12T09:28:37.301Z,100599.88
2022-08-12T09:32:05.865Z,100601.97
2022-08-12T09:34:28.791Z,100605.06
2022-08-12T09:37:00.933Z,100604.22
2022-08-12T09:40:03.517Z,100606.22
2022-08-12T09:42:54.066Z,100611.41
2022-08-12T09:46:20.508Z,100618.47
2022-08-12T09:48:22.055Z,100614.78
2022-08-12T09:50:55.469Z,100617.97
2022-08-12T09:53:36.036Z,100616.03
2022-08-12T09:56:58.451Z,100606.88
2022-08-12T09:59:03.010Z,100606.94
2022-08-12T10:01:35.127Z,100601.63
2022-08-12T10:04:22.334Z,100609.38
2022-08-12T10:06:54.717Z,100602.44
2022-08-12T10:09:28.959Z,100597.66
2022-08-12T10:12:34.257Z,100602.72
2022-08-12T10:15:04.680Z,100599.28
2022-08-12T10:17:35.491Z,100612.44
2022-08-12T10:20:24.404Z,100596.41
2022-08-12T10:23:01.953Z,100604.75
2022-08-12T10:26:33.737Z,100597.59
2022-08-12T10:29:02.630Z,100588.06
2022-08-12T10:32:01.699Z,100585.00
2022-08-12T10:34:26.463Z,100583.44
2022-08-12T10:37:00.473Z,100586.88
2022-08-12T10:40:01.176Z,100590.56
2022-08-12T10:42:57.597Z,100587.50
2022-08-12T10:45:31.435Z,100580.31
2022-08-12T10:48:21.885Z,100579.44
2022-08-12T10:51:01.140Z,100585.81
2022-08-12T10:53:45.665Z,100571.69
2022-08-12T10:56:18.948Z,100582.59
2022-08-12T10:58:48.614Z,100586.06
2022-08-12T11:01:49.768Z,100574.59
2022-08-12T11:04:31.480Z,100572.53
2022-08-12T11:07:06.193Z,100573.84
2022-08-12T11:09:59.683Z,100579.91
2022-08-12T11:12:56.337Z,100579.59
2022-08-12T11:15:33.107Z,100569.00
2022-08-12T11:18:18.009Z,100572.69
2022-08-12T11:20:52.204Z,100574.06
2022-08-12T11:23:35.905Z,100572.47
2022-08-12T11:26:08.135Z,100569.16
2022-08-12T11:28:39.950Z,100562.00
2022-08-12T11:31:12.355Z,100559.03
2022-08-12T11:34:05.327Z,100559.03
2022-08-12T11:36:39.383Z,100563.00
2022-08-12T11:39:11.344Z,100566.84
2022-08-12T11:41:43.082Z,100560.22
2022-08-12T11:44:36.644Z,100567.09
2022-08-12T11:47:03.758Z,100562.47
2022-08-12T11:49:38.128Z,100570.00
2022-08-12T11:52:17.352Z,100560.69
2022-08-12T11:54:56.868Z,100564.72
2022-08-12T11:58:33.861Z,100558.91
2022-08-12T12:02:02.095Z,100560.38
2022-08-12T12:03:06.032Z,100560.00
2022-08-12T12:05:41.547Z,100552.38
2022-08-12T12:08:40.484Z,100555.22
2022-08-12T12:11:10.956Z,100555.22
2022-08-12T12:14:06.301Z,100551.69
2022-08-12T12:16:33.511Z,100551.31
2022-08-12T12:19:07.526Z,100554.13
2022-08-12T12:21:48.695Z,100554.53
2022-08-12T12:24:22.072Z,100549.63
2022-08-12T12:27:00.473Z,100550.78
2022-08-12T12:30:18.300Z,100544.81
2022-08-12T12:32:29.238Z,100546.81
2022-08-12T12:36:05.471Z,100543.13
2022-08-12T12:38:04.146Z,100550.31
2022-08-12T12:40:39.825Z,100538.19
2022-08-12T12:43:10.150Z,100533.41
2022-08-12T12:45:44.690Z,100535.09
2022-08-12T12:48:18.677Z,100530.72
2022-08-12T12:51:09.327Z,100525.06
2022-08-12T12:54:06.543Z,100528.97
2022-08-12T12:56:33.976Z,100519.22
2022-08-12T12:59:06.165Z,100537.22
2022-08-12T13:01:41.805Z,100530.31
2022-08-12T13:04:14.449Z,100522.53
2022-08-12T13:06:43.585Z,100510.41
2022-08-12T13:09:13.585Z,100516.91
2022-08-12T13:11:44.619Z,100513.31
2022-08-12T13:14:28.833Z,100514.19
2022-08-12T13:17:02.573Z,100518.47
2022-08-12T13:19:37.815Z,100519.06
2022-08-12T13:22:20.330Z,100518.94
2022-08-12T13:24:52.156Z,100514.88
2022-08-12T13:27:28.307Z,100519.13
2022-08-12T13:30:03.856Z,100520.13
2022-08-12T13:32:33.000Z,100521.28
2022-08-12T13:35:04.596Z,100515.78
2022-08-12T13:37:55.169Z,100509.16
2022-08-12T13:40:25.729Z,100506.38
2022-08-12T13:42:57.913Z,100512.47
2022-08-12T13:45:29.513Z,100512.47
2022-08-12T13:48:01.785Z,100518.56
2022-08-12T13:50:34.053Z,100518.16
2022-08-12T13:53:26.150Z,100509.34
2022-08-12T13:56:01.311Z,100524.75
2022-08-12T13:58:33.070Z,100516.97
2022-08-12T14:01:08.814Z,100528.13
2022-08-12T14:03:51.170Z,100517.41
2022-08-12T14:06:25.950Z,100519.50
2022-08-12T14:09:00.039Z,100519.50
2022-08-12T14:11:58.901Z,100520.09
2022-08-12T14:14:31.387Z,100528.69
2022-08-12T14:17:09.967Z,100529.41
2022-08-12T14:20:01.319Z,100537.44
2022-08-12T14:22:33.983Z,100529.66
2022-08-12T14:25:03.096Z,100529.50
2022-08-12T14:28:03.775Z,100531.88
2022-08-12T14:30:29.402Z,100525.22
2022-08-12T14:33:02.908Z,100522.25
2022-08-12T14:35:41.103Z,100532.94
2022-08-12T14:38:25.963Z,100528.84
2022-08-12T14:40:58.060Z,100536.44
2022-08-12T14:43:31.746Z,100537.94
2022-08-12T14:46:19.469Z,100534.97
2022-08-12T14:48:52.105Z,100543.00
2022-08-12T14:52:48.458Z,100543.28
2022-08-12T14:57:23.423Z,100545.69
2022-08-12T15:00:10.546Z,100553.97
2022-08-12T15:02:40.212Z,100554.53
2022-08-12T15:05:10.169Z,100545.75
2022-08-12T15:08:05.090Z,100550.94
2022-08-12T15:10:38.567Z,100543.69
2022-08-12T15:13:08.289Z,100548.84
2022-08-12T15:15:45.622Z,100550.59
2022-08-12T15:18:21.147Z,100555.78
2022-08-12T15:20:55.693Z,100550.00
2022-08-12T15:23:29.193Z,100547.97
2022-08-12T15:26:21.270Z,100539.13
2022-08-12T15:29:07.257Z,100535.31
2022-08-12T15:32:00.506Z,100531.97
2022-08-12T15:34:33.801Z,100530.56
2022-08-12T15:37:02.739Z,100531.56
2022-08-12T15:39:32.071Z,100527.97
2022-08-12T15:42:09.053Z,100522.22
2022-08-12T15:44:42.842Z,100509.84
2022-08-12T15:47:12.242Z,100505.03
2022-08-12T15:49:59.848Z,100503.69
2022-08-12T15:52:33.286Z,100501.16
2022-08-12T15:55:06.593Z,100485.38
2022-08-12T15:57:54.342Z,100496.03
2022-08-12T16:00:32.702Z,100499.69
2022-08-12T16:03:14.275Z,100492.56
2022-08-12T16:06:13.211Z,100493.03
2022-08-12T16:08:42.161Z,100490.88
2022-08-12T16:11:18.979Z,100483.34
2022-08-12T16:13:52.781Z,100476.78
2022-08-12T16:16:24.891Z,100477.09
2022-08-12T16:18:59.585Z,100474.06
2022-08-12T16:21:51.181Z,100478.06
2022-08-12T16:24:22.348Z,100475.38
2022-08-12T16:26:55.187Z,100469.91
2022-08-12T16:29:53.183Z,100478.41
2022-08-12T16:32:31.453Z,100476.44
2022-08-12T16:35:16.178Z,100473.88
2022-08-12T16:38:25.709Z,100471.09
2022-08-12T16:40:37.121Z,100466.34
2022-08-12T16:43:25.909Z,100473.53
2022-08-12T16:46:05.269Z,100470.63
2022-08-12T16:48:49.086Z,100462.88
2022-08-12T16:51:20.261Z,100466.63
2022-08-12T16:53:50.374Z,100459.16
2022-08-12T16:56:19.356Z,100444.13
2022-08-12T16:58:52.403Z,100443.78
2022-08-12T17:01:23.678Z,100435.16
2022-08-12T17:04:08.849Z,100442.44
2022-08-12T17:06:43.628Z,100442.69
2022-08-12T17:09:17.556Z,100434.97
2022-08-12T17:11:49.209Z,100432.28
2022-08-12T17:14:22.964Z,100438.06
2022-08-12T17:16:55.290Z,100433.59
2022-08-12T17:20:29.811Z,100426.69
2022-08-12T17:22:16.935Z,100425.72
2022-08-12T17:24:55.508Z,100417.72
2022-08-12T17:27:26.354Z,100417.25
2022-08-12T17:30:02.987Z,100412.03
2022-08-12T17:32:37.538Z,100405.13
2022-08-12T17:35:30.028Z,100415.09
2022-08-12T17:38:07.627Z,100419.22
2022-08-12T17:40:41.252Z,100409.53
2022-08-12T17:43:57.129Z,100409.75
2022-08-12T17:46:03.070Z,100417.28
2022-08-12T17:48:38.456Z,100413.91
2022-08-12T17:51:15.221Z,100416.19
2022-08-12T17:54:11.472Z,100409.06
2022-08-12T17:56:38.250Z,100404.22
2022-08-12T17:59:12.483Z,100405.19
2022-08-12T18:01:44.778Z,100400.81
2022-08-12T18:04:21.392Z,100399.38
2022-08-12T18:06:52.068Z,100396.97
2022-08-12T18:09:24.491Z,100388.22
2022-08-12T18:12:24.827Z,100383.03
2022-08-12T18:14:58.391Z,100381.22
2022-08-12T18:17:28.626Z,100379.88
2022-08-12T18:20:05.450Z,100380.97
2022-08-12T18:22:55.690Z,100380.50
2022-08-12T18:26:15.086Z,100377.34
2022-08-12T18:28:32.062Z,100379.53
2022-08-12T18:31:03.488Z,100379.31
2022-08-12T18:33:41.674Z,100370.84
2022-08-12T18:36:22.286Z,100375.53
2022-08-12T18:38:56.279Z,100375.66
2022-08-12T18:41:34.204Z,100374.44
2022-08-12T18:44:08.121Z,100375.94
2022-08-12T18:46:59.720Z,100370.91
2022-08-12T18:49:37.946Z,100379.69
2022-08-12T18:52:11.639Z,100373.00
2022-08-12T18:54:49.070Z,100375.66
2022-08-12T18:58:07.654Z,100375.41
2022-08-12T19:00:22.707Z,100381.25
2022-08-12T19:02:54.859Z,100380.00
2022-08-12T19:05:52.671Z,100378.31
2022-08-12T19:08:16.794Z,100373.00
2022-08-12T19:10:50.358Z,100373.97
2022-08-12T19:13:50.789Z,100370.56
2022-08-12T19:16:21.836Z,100372.28
2022-08-12T19:18:52.696Z,100373.38
2022-08-12T19:21:21.555Z,100371.53
2022-08-12T19:24:07.243Z,100368.88
2022-08-12T19:26:37.106Z,100377.72
2022-08-12T19:29:08.259Z,100376.97
2022-08-12T19:31:45.062Z,100382.19
2022-08-12T19:37:27.464Z,100379.78
2022-08-12T19:40:09.127Z,100378.94
2022-08-12T19:42:57.565Z,100383.66
2022-08-12T19:45:42.333Z,100388.63
2022-08-12T19:48:21.503Z,100389.81
2022-08-12T19:50:55.771Z,100395.97
2022-08-12T19:53:30.381Z,100390.53
2022-08-12T19:56:21.035Z,100381.22
2022-08-12T19:58:54.641Z,100375.91
2022-08-12T20:01:23.772Z,100384.97
2022-08-12T20:03:59.194Z,100387.97
2022-08-12T20:06:33.902Z,100383.13
2022-08-12T20:09:04.701Z,100385.09
2022-08-12T20:12:15.308Z,100384.34
2022-08-12T20:14:26.417Z,100388.97
2022-08-12T20:17:02.833Z,100382.06
2022-08-12T20:20:01.384Z,100384.72
2022-08-12T20:22:29.875Z,100382.06
2022-08-12T20:25:09.347Z,100377.69
2022-08-12T20:28:04.140Z,100378.53
2022-08-12T20:30:52.459Z,100377.09
2022-08-12T20:33:50.800Z,100374.66
2022-08-12T20:36:41.168Z,100380.09
2022-08-12T20:39:33.775Z,100373.22
2022-08-12T20:41:58.962Z,100377.81
2022-08-12T20:44:30.622Z,100369.34
2022-08-12T20:47:17.997Z,100365.97
2022-08-12T20:49:55.578Z,100371.03
2022-08-12T20:52:33.960Z,100380.00
2022-08-12T20:55:05.896Z,100374.91
2022-08-12T20:58:02.965Z,100382.75
2022-08-12T21:00:35.136Z,100376.84
2022-08-12T21:03:18.301Z,100384.47
2022-08-12T21:06:10.223Z,100382.75
2022-08-12T21:08:42.005Z,100388.69
2022-08-12T21:11:12.067Z,100383.13
2022-08-12T21:13:41.775Z,100387.72
2022-08-12T21:16:41.616Z,100390.25
2022-08-12T21:19:22.564Z,100387.00
2022-08-12T21:21:54.862Z,100378.16
2022-08-12T21:24:31.658Z,100380.72
2022-08-12T21:27:03.500Z,100378.16
2022-08-12T21:29:49.997Z,100366.69
2022-08-12T21:32:46.790Z,100350.81
2022-08-12T21:35:19.185Z,100361.34
2022-08-12T21:37:53.002Z,100364.72
2022-08-12T21:40:22.519Z,100358.69
2022-08-12T21:43:08.083Z,100361.34
2022-08-12T21:45:45.976Z,100360.59
2022-08-12T21:48:28.308Z,100348.03
2022-08-12T21:50:57.714Z,100346.84
2022-08-12T21:54:06.099Z,100348.53
2022-08-12T21:56:34.103Z,100338.00
2022-08-12T21:59:13.643Z,100339.56
2022-08-12T22:01:54.501Z,100336.53
2022-08-12T22:04:54.904Z,100337.50
2022-08-12T22:07:31.307Z,100336.53
2022-08-12T22:10:28.286Z,100341.38
2022-08-12T22:13:00.924Z,100334.97
2022-08-12T22:15:36.775Z,100328.19
2022-08-12T22:18:32.535Z,100336.19
2022-08-12T22:21:37.960Z,100321.31
2022-08-12T22:24:31.543Z,100323.09
2022-08-12T22:27:18.234Z,100321.41
2022-08-12T22:30:16.827Z,100318.03
2022-08-12T22:32:54.935Z,100316.31
2022-08-12T22:35:55.635Z,100319.97
2022-08-12T22:38:30.908Z,100303.97
2022-08-12T22:41:04.300Z,100303.50
2022-08-12T22:43:59.949Z,100304.00
2022-08-12T22:46:52.451Z,100296.84
2022-08-12T22:49:26.047Z,100293.59
2022-08-12T22:52:09.061Z,100287.28
2022-08-12T22:54:46.397Z,100286.31
2022-08-12T22:57:53.385Z,100280.63
2022-08-12T23:00:27.084Z,100273.00
2022-08-12T23:03:02.728Z,100271.19
2022-08-12T23:05:57.255Z,100265.75
2022-08-12T23:08:23.916Z,100266.56
2022-08-12T23:10:59.535Z,100262.81
2022-08-12T23:13:55.084Z,100260.16
2022-08-12T23:16:31.461Z,100260.16
2022-08-12T23:19:17.973Z,100250.47
2022-08-12T23:22:06.482Z,100258.47
2022-08-12T23:24:56.336Z,100249.78
2022-08-12T23:27:52.214Z,100246.13
2022-08-12T23:30:31.050Z,100239.94
2022-08-12T23:40:49.777Z,100242.63
2022-08-12T23:43:24.302Z,100237.41
2022-08-12T23:46:03.414Z,100238.38
2022-08-12T23:48:33.952Z,100235.13
2022-08-12T23:51:21.629Z,100229.28
2022-08-12T23:53:55.360Z,100227.84
2022-08-12T23:56:25.290Z,100221.31
2022-08-12T23:58:57.436Z,100214.41
